Wetterdaten: Woche 08.08.16 - 14.08.16 (KW32)
Datum Zeit Temp. A. Temp. A. max Feuchte A. Luftdruck Regen Wind Richtung Sonnenschein ET UV Solar Taupunkt Windben
08.08.2016 00:00 11,9 C 11,9 C 91 % 1024,1 hPa 0,0 mm 0,1 km/h (0 Bft) W-NW 0,00 h 0,000 mm 0,0 UV-I 0 W/m 10,5 C 0,2 km/h (0 Bft)
08.08.2016 01:00 11,5 C 11,5 C 92 % 1023,8 hPa 0,0 mm 0,1 km/h (0 Bft) W-NW 0,00 h 0,000 mm 0,0 UV-I 0 W/m 10,3 C 0,4 km/h (0 Bft)
08.08.2016 02:00 11,0 C 11,0 C 94 % 1023,3 hPa 0,0 mm 0,0 km/h (0 Bft) N 0,00 h 0,000 mm 0,0 UV-I 0 W/m 10,0 C 0,0 km/h (0 Bft)
08.08.2016 03:00 10,7 C 10,7 C 94 % 1022,9 hPa 0,0 mm 0,0 km/h (0 Bft) N 0,00 h 0,000 mm 0,0 UV-I 0 W/m 9,9 C 0,1 km/h (0 Bft)
08.08.2016 04:00 10,6 C 10,6 C 95 % 1022,3 hPa 0,0 mm 0,2 km/h (0 Bft) W-NW 0,00 h 0,000 mm 0,0 UV-I 0 W/m 9,8 C 0,8 km/h (0 Bft)
08.08.2016 05:00 10,3 C 10,3 C 95 % 1022,2 hPa 0,0 mm 0,2 km/h (0 Bft) W-NW 0,00 h 0,000 mm 0,0 UV-I 0 W/m 9,5 C 0,6 km/h (0 Bft)
08.08.2016 06:00 10,6 C 10,6 C 95 % 1022,4 hPa 0,0 mm 0,1 km/h (0 Bft) NW 0,00 h 0,000 mm 0,0 UV-I 16 W/m 9,9 C 0,7 km/h (0 Bft)
08.08.2016 07:00 12,7 C 12,7 C 92 % 1022,3 hPa 0,0 mm 0,2 km/h (0 Bft) NW 0,47 h 0,000 mm 0,8 UV-I 124 W/m 11,4 C 0,9 km/h (0 Bft)
08.08.2016 08:00 16,3 C 16,3 C 87 % 1021,9 hPa 0,0 mm 0,3 km/h (0 Bft) NW 1,00 h 0,051 mm 1,7 UV-I 347 W/m 14,0 C 1,1 km/h (0 Bft)
08.08.2016 09:00 19,1 C 19,1 C 76 % 1021,5 hPa 0,0 mm 1,6 km/h (1 Bft) NW 1,00 h 0,178 mm 3,2 UV-I 517 W/m 14,8 C 2,9 km/h (1 Bft)
08.08.2016 10:00 20,8 C 20,8 C 68 % 1021,4 hPa 0,0 mm 7,7 km/h (2 Bft) W-NW 1,00 h 0,304 mm 4,5 UV-I 659 W/m 14,6 C 12,0 km/h (2 Bft)
08.08.2016 11:00 21,7 C 21,7 C 66 % 1020,9 hPa 0,0 mm 7,7 km/h (2 Bft) W-NW 1,00 h 0,407 mm 5,8 UV-I 765 W/m 15,1 C 12,5 km/h (3 Bft)
08.08.2016 12:00 22,8 C 22,8 C 64 % 1020,4 hPa 0,0 mm 8,3 km/h (2 Bft) NW 1,00 h 0,482 mm 6,7 UV-I 825 W/m 15,5 C 13,6 km/h (3 Bft)
08.08.2016 13:00 23,5 C 23,5 C 62 % 1019,9 hPa 0,0 mm 7,0 km/h (2 Bft) W 1,00 h 0,534 mm 6,9 UV-I 837 W/m 15,8 C 11,1 km/h (2 Bft)
08.08.2016 14:00 24,1 C 24,1 C 59 % 1019,5 hPa 0,0 mm 6,4 km/h (2 Bft) W-NW 1,00 h 0,559 mm 6,5 UV-I 800 W/m 15,5 C 10,6 km/h (2 Bft)
08.08.2016 15:00 24,2 C 24,2 C 55 % 1019,1 hPa 0,0 mm 6,5 km/h (2 Bft) W 1,00 h 0,533 mm 5,4 UV-I 711 W/m 14,5 C 10,2 km/h (2 Bft)
08.08.2016 16:00 24,1 C 24,1 C 53 % 1018,6 hPa 0,0 mm 5,5 km/h (1 Bft) W-NW 0,22 h 0,483 mm 2,9 UV-I 188 W/m 13,8 C 8,9 km/h (2 Bft)
08.08.2016 17:00 23,9 C 23,9 C 52 % 1018,2 hPa 0,0 mm 6,1 km/h (2 Bft) W-NW 0,00 h 0,152 mm 0,0 UV-I 41 W/m 13,4 C 10,1 km/h (2 Bft)
08.08.2016 18:00 23,2 C 23,2 C 51 % 1018,0 hPa 0,0 mm 4,7 km/h (1 Bft) W-NW 0,00 h 0,076 mm 1,1 UV-I 38 W/m 12,5 C 7,6 km/h (2 Bft)
08.08.2016 19:00 21,0 C 21,0 C 60 % 1018,0 hPa 0,0 mm 2,4 km/h (1 Bft) W 0,00 h 0,076 mm 0,5 UV-I 44 W/m 13,0 C 4,6 km/h (1 Bft)
08.08.2016 20:00 19,9 C 20,0 C 63 % 1018,1 hPa 0,0 mm 2,3 km/h (1 Bft) S 0,00 h 0,051 mm 0,0 UV-I 14 W/m 12,6 C 4,1 km/h (1 Bft)
08.08.2016 21:00 16,8 C 16,9 C 78 % 1018,8 hPa 0,0 mm 0,7 km/h (0 Bft) SW 0,00 h 0,026 mm 0,0 UV-I 0 W/m 13,0 C 1,7 km/h (1 Bft)
08.08.2016 22:00 18,9 C 18,9 C 68 % 1018,7 hPa 0,0 mm 2,2 km/h (1 Bft) S-SW 0,00 h 0,025 mm 0,0 UV-I 0 W/m 13,0 C 4,0 km/h (1 Bft)
08.08.2016 23:00 17,3 C 17,4 C 75 % 1018,4 hPa 0,0 mm 1,5 km/h (1 Bft) W-SW 0,00 h 0,025 mm 0,0 UV-I 0 W/m 12,9 C 2,7 km/h (1 Bft)
09.08.2016 00:00 15,1 C 15,1 C 84 % 1018,4 hPa 0,0 mm 0,6 km/h (0 Bft) S-SO 0,00 h 0,000 mm 0,0 UV-I 0 W/m 12,4 C 1,3 km/h (1 Bft)
09.08.2016 01:00 14,8 C 14,9 C 88 % 1018,5 hPa 0,0 mm 0,4 km/h (0 Bft) S 0,00 h 0,025 mm 0,0 UV-I 0 W/m 12,9 C 0,9 km/h (0 Bft)
09.08.2016 02:00 15,8 C 15,8 C 87 % 1018,2 hPa 0,0 mm 0,5 km/h (0 Bft) S-SW 0,00 h 0,000 mm 0,0 UV-I 0 W/m 13,7 C 1,1 km/h (1 Bft)
09.08.2016 03:00 15,4 C 15,4 C 89 % 1017,5 hPa 0,0 mm 0,1 km/h (0 Bft) W-NW 0,00 h 0,000 mm 0,0 UV-I 0 W/m 13,5 C 0,3 km/h (0 Bft)
09.08.2016 04:00 14,7 C 14,7 C 91 % 1017,1 hPa 0,0 mm 0,1 km/h (0 Bft) W-NW 0,00 h 0,000 mm 0,0 UV-I 0 W/m 13,2 C 0,4 km/h (0 Bft)
09.08.2016 05:00 14,5 C 14,5 C 92 % 1017,3 hPa 8,6 mm 2,6 km/h (1 Bft) SO 0,00 h 0,000 mm 0,0 UV-I 0 W/m 13,1 C 4,2 km/h (1 Bft)
09.08.2016 06:00 13,6 C 13,7 C 95 % 1017,3 hPa 0,0 mm 0,4 km/h (0 Bft) SO 0,00 h 0,000 mm 0,0 UV-I 9 W/m 12,8 C 0,9 km/h (0 Bft)
09.08.2016 07:00 13,8 C 13,8 C 95 % 1017,3 hPa 1,4 mm 0,5 km/h (0 Bft) W-SW 0,00 h 0,000 mm 0,0 UV-I 12 W/m 13,0 C 1,3 km/h (1 Bft)
09.08.2016 08:00 13,8 C 13,8 C 95 % 1017,5 hPa 4,6 mm 0,9 km/h (0 Bft) S 0,00 h 0,000 mm 0,0 UV-I 19 W/m 13,0 C 2,0 km/h (1 Bft)
09.08.2016 09:00 14,5 C 14,5 C 95 % 1017,3 hPa 0,6 mm 0,9 km/h (0 Bft) NW 0,00 h 0,000 mm 0,8 UV-I 84 W/m 13,7 C 1,7 km/h (1 Bft)
09.08.2016 10:00 15,0 C 15,0 C 93 % 1017,6 hPa 0,0 mm 0,9 km/h (0 Bft) N-NO 0,00 h 0,051 mm 0,7 UV-I 74 W/m 13,8 C 1,8 km/h (1 Bft)
09.08.2016 11:00 14,5 C 14,6 C 93 % 1017,9 hPa 2,0 mm 2,9 km/h (1 Bft) W 0,00 h 0,051 mm 0,7 UV-I 57 W/m 13,4 C 4,6 km/h (1 Bft)
09.08.2016 12:00 14,7 C 14,7 C 92 % 1018,1 hPa 0,0 mm 1,4 km/h (1 Bft) W-SW 0,00 h 0,025 mm 1,5 UV-I 144 W/m 13,5 C 2,8 km/h (1 Bft)
09.08.2016 13:00 14,2 C 14,2 C 93 % 1018,0 hPa 0,4 mm 0,9 km/h (0 Bft) SW 0,00 h 0,077 mm 0,9 UV-I 46 W/m 13,1 C 1,9 km/h (1 Bft)
09.08.2016 14:00 13,8 C 13,8 C 94 % 1018,0 hPa 0,6 mm 2,5 km/h (1 Bft) W-NW 0,00 h 0,025 mm 0,7 UV-I 51 W/m 12,7 C 4,1 km/h (1 Bft)
09.08.2016 15:00 13,2 C 13,2 C 93 % 1018,1 hPa 0,8 mm 3,1 km/h (1 Bft) S 0,00 h 0,025 mm 0,6 UV-I 64 W/m 12,1 C 5,2 km/h (1 Bft)
09.08.2016 16:00 11,9 C 12,0 C 94 % 1018,5 hPa 2,6 mm 5,6 km/h (1 Bft) W 0,00 h 0,026 mm 0,7 UV-I 29 W/m 11,0 C 9,7 km/h (2 Bft)
09.08.2016 17:00 11,4 C 11,4 C 94 % 1019,0 hPa 3,0 mm 3,7 km/h (1 Bft) W 0,00 h 0,025 mm 0,0 UV-I 26 W/m 10,5 C 6,4 km/h (2 Bft)
09.08.2016 18:00 11,0 C 11,0 C 94 % 1019,5 hPa 2,6 mm 3,3 km/h (1 Bft) S 0,00 h 0,026 mm 0,0 UV-I 19 W/m 10,0 C 5,8 km/h (2 Bft)
09.08.2016 19:00 11,0 C 11,0 C 95 % 1019,7 hPa 1,2 mm 0,8 km/h (0 Bft) S 0,00 h 0,000 mm 0,0 UV-I 18 W/m 10,2 C 1,9 km/h (1 Bft)
09.08.2016 20:00 10,8 C 10,8 C 95 % 1019,6 hPa 0,2 mm 0,9 km/h (0 Bft) SW 0,00 h 0,000 mm 0,0 UV-I 8 W/m 10,0 C 1,9 km/h (1 Bft)
09.08.2016 21:00 10,3 C 10,3 C 95 % 1019,8 hPa 0,0 mm 0,6 km/h (0 Bft) S 0,00 h 0,000 mm 0,0 UV-I 0 W/m 9,6 C 1,0 km/h (0 Bft)
09.08.2016 22:00 10,3 C 10,3 C 95 % 1019,5 hPa 0,0 mm 0,5 km/h (0 Bft) SW 0,00 h 0,000 mm 0,0 UV-I 0 W/m 9,6 C 1,3 km/h (1 Bft)
09.08.2016 23:00 9,9 C 9,9 C 95 % 1019,2 hPa 0,0 mm 0,3 km/h (0 Bft) W-NW 0,00 h 0,000 mm 0,0 UV-I 0 W/m 9,1 C 0,7 km/h (0 Bft)
10.08.2016 00:00 9,7 C 9,7 C 95 % 1019,0 hPa 0,0 mm 0,3 km/h (0 Bft) W-NW 0,00 h 0,000 mm 0,0 UV-I 0 W/m 9,0 C 0,9 km/h (0 Bft)
10.08.2016 01:00 9,6 C 9,7 C 95 % 1018,9 hPa 0,2 mm 1,1 km/h (1 Bft) SW 0,00 h 0,000 mm 0,0 UV-I 0 W/m 8,9 C 2,3 km/h (1 Bft)
10.08.2016 02:00 9,6 C 9,6 C 95 % 1018,2 hPa 0,0 mm 0,4 km/h (0 Bft) W-NW 0,00 h 0,000 mm 0,0 UV-I 0 W/m 8,8 C 1,3 km/h (1 Bft)
10.08.2016 03:00 9,5 C 9,5 C 96 % 1018,1 hPa 0,0 mm 0,3 km/h (0 Bft) W-NW 0,00 h 0,000 mm 0,0 UV-I 0 W/m 8,8 C 0,7 km/h (0 Bft)
10.08.2016 04:00 9,5 C 9,5 C 96 % 1018,0 hPa 0,8 mm 0,2 km/h (0 Bft) NW 0,00 h 0,000 mm 0,0 UV-I 0 W/m 8,9 C 0,5 km/h (0 Bft)
10.08.2016 05:00 9,4 C 9,4 C 95 % 1017,9 hPa 0,0 mm 0,4 km/h (0 Bft) W-SW 0,00 h 0,000 mm 0,0 UV-I 0 W/m 8,7 C 1,2 km/h (1 Bft)
10.08.2016 06:00 9,3 C 9,3 C 96 % 1018,2 hPa 0,0 mm 0,4 km/h (0 Bft) O-SO 0,00 h 0,000 mm 0,0 UV-I 14 W/m 8,6 C 1,1 km/h (1 Bft)
10.08.2016 07:00 9,2 C 9,2 C 95 % 1018,4 hPa 0,0 mm 0,2 km/h (0 Bft) S-SW 0,00 h 0,000 mm 0,0 UV-I 29 W/m 8,4 C 0,7 km/h (0 Bft)
10.08.2016 08:00 9,8 C 9,8 C 95 % 1018,4 hPa 0,0 mm 1,1 km/h (1 Bft) W-SW 0,00 h 0,025 mm 0,6 UV-I 60 W/m 9,0 C 2,5 km/h (1 Bft)
10.08.2016 09:00 10,8 C 10,8 C 93 % 1018,5 hPa 0,0 mm 2,6 km/h (1 Bft) W 0,00 h 0,026 mm 0,8 UV-I 101 W/m 9,6 C 4,6 km/h (1 Bft)
10.08.2016 10:00 10,8 C 10,8 C 90 % 1018,7 hPa 0,0 mm 4,0 km/h (1 Bft) W-SW 0,00 h 0,051 mm 0,6 UV-I 75 W/m 9,3 C 6,8 km/h (2 Bft)
10.08.2016 11:00 10,9 C 11,0 C 91 % 1019,0 hPa 0,0 mm 1,8 km/h (1 Bft) W 0,00 h 0,050 mm 0,7 UV-I 77 W/m 9,6 C 3,3 km/h (1 Bft)
10.08.2016 12:00 11,7 C 11,7 C 89 % 1018,9 hPa 0,0 mm 5,5 km/h (1 Bft) W-SW 0,00 h 0,051 mm 1,7 UV-I 194 W/m 9,9 C 9,0 km/h (2 Bft)
10.08.2016 13:00 11,3 C 11,3 C 89 % 1019,0 hPa 0,4 mm 5,3 km/h (1 Bft) W 0,00 h 0,102 mm 1,0 UV-I 109 W/m 9,5 C 8,7 km/h (2 Bft)
10.08.2016 14:00 10,6 C 10,6 C 92 % 1019,4 hPa 0,2 mm 3,2 km/h (1 Bft) W-SW 0,00 h 0,051 mm 1,0 UV-I 107 W/m 9,3 C 5,6 km/h (1 Bft)
10.08.2016 15:00 10,4 C 10,4 C 92 % 1019,8 hPa 0,2 mm 2,9 km/h (1 Bft) W 0,00 h 0,050 mm 0,6 UV-I 60 W/m 9,1 C 4,9 km/h (1 Bft)
10.08.2016 16:00 10,2 C 10,2 C 93 % 1019,7 hPa 0,2 mm 0,9 km/h (0 Bft) W-SW 0,00 h 0,026 mm 0,6 UV-I 65 W/m 9,1 C 2,1 km/h (1 Bft)
10.08.2016 17:00 10,5 C 10,5 C 92 % 1020,0 hPa 0,0 mm 3,7 km/h (1 Bft) W 0,00 h 0,025 mm 0,6 UV-I 52 W/m 9,3 C 6,7 km/h (2 Bft)
10.08.2016 18:00 9,8 C 9,9 C 91 % 1020,6 hPa 0,2 mm 2,0 km/h (1 Bft) SW 0,00 h 0,026 mm 0,0 UV-I 23 W/m 8,5 C 3,8 km/h (1 Bft)
10.08.2016 19:00 9,3 C 9,3 C 93 % 1021,2 hPa 0,6 mm 1,3 km/h (1 Bft) S-SO 0,00 h 0,025 mm 0,0 UV-I 22 W/m 8,3 C 2,7 km/h (1 Bft)
10.08.2016 20:00 8,8 C 8,9 C 94 % 1021,1 hPa 0,0 mm 0,8 km/h (0 Bft) W 0,00 h 0,000 mm 0,0 UV-I 12 W/m 8,0 C 1,9 km/h (1 Bft)
10.08.2016 21:00 8,5 C 8,5 C 95 % 1021,6 hPa 0,0 mm 1,2 km/h (1 Bft) NW 0,00 h 0,000 mm 0,0 UV-I 0 W/m 7,7 C 2,7 km/h (1 Bft)
10.08.2016 22:00 8,7 C 8,7 C 95 % 1022,0 hPa 0,0 mm 0,8 km/h (0 Bft) W-SW 0,00 h 0,000 mm 0,0 UV-I 0 W/m 7,9 C 2,2 km/h (1 Bft)
10.08.2016 23:00 8,4 C 8,4 C 95 % 1022,2 hPa 4,0 mm 2,9 km/h (1 Bft) W-NW 0,00 h 0,000 mm 0,0 UV-I 0 W/m 7,6 C 4,7 km/h (1 Bft)
11.08.2016 00:00 8,0 C 8,0 C 95 % 1022,1 hPa 0,4 mm 1,7 km/h (1 Bft) W 0,00 h 0,000 mm 0,0 UV-I 0 W/m 7,1 C 3,0 km/h (1 Bft)
11.08.2016 01:00 7,2 C 7,2 C 93 % 1022,9 hPa 4,2 mm 5,8 km/h (1 Bft) W-SW 0,00 h 0,000 mm 0,0 UV-I 0 W/m 6,1 C 10,8 km/h (2 Bft)
11.08.2016 02:00 6,8 C 6,8 C 95 % 1023,0 hPa 3,4 mm 1,9 km/h (1 Bft) W-SW 0,00 h 0,000 mm 0,0 UV-I 0 W/m 6,0 C 3,6 km/h (1 Bft)
11.08.2016 03:00 6,7 C 6,7 C 95 % 1023,0 hPa 0,0 mm 0,8 km/h (0 Bft) W-SW 0,00 h 0,000 mm 0,0 UV-I 0 W/m 6,0 C 1,8 km/h (1 Bft)
11.08.2016 04:00 6,7 C 6,8 C 95 % 1023,1 hPa 0,0 mm 1,8 km/h (1 Bft) S 0,00 h 0,000 mm 0,0 UV-I 0 W/m 6,0 C 3,2 km/h (1 Bft)
11.08.2016 05:00 6,8 C 6,8 C 96 % 1023,2 hPa 0,8 mm 0,7 km/h (0 Bft) S-SW 0,00 h 0,000 mm 0,0 UV-I 0 W/m 6,2 C 1,8 km/h (1 Bft)
11.08.2016 06:00 7,1 C 7,1 C 96 % 1023,7 hPa 0,2 mm 0,9 km/h (0 Bft) S 0,00 h 0,000 mm 0,0 UV-I 6 W/m 6,5 C 2,1 km/h (1 Bft)
11.08.2016 07:00 7,5 C 7,5 C 96 % 1024,2 hPa 0,0 mm 0,4 km/h (0 Bft) S-SO 0,00 h 0,000 mm 0,5 UV-I 27 W/m 6,8 C 1,0 km/h (0 Bft)
11.08.2016 08:00 8,8 C 8,8 C 93 % 1024,6 hPa 0,0 mm 1,6 km/h (1 Bft) W 0,02 h 0,000 mm 0,8 UV-I 139 W/m 7,8 C 2,8 km/h (1 Bft)
11.08.2016 09:00 10,1 C 10,1 C 89 % 1024,8 hPa 0,0 mm 3,3 km/h (1 Bft) W 0,33 h 0,051 mm 1,6 UV-I 286 W/m 8,4 C 5,1 km/h (1 Bft)
11.08.2016 10:00 10,9 C 10,9 C 85 % 1025,0 hPa 0,0 mm 4,9 km/h (1 Bft) W-SW 0,50 h 0,127 mm 3,1 UV-I 465 W/m 8,5 C 7,9 km/h (2 Bft)
11.08.2016 11:00 12,3 C 12,3 C 78 % 1024,8 hPa 0,0 mm 5,6 km/h (1 Bft) W-NW 0,62 h 0,228 mm 4,0 UV-I 570 W/m 8,5 C 9,2 km/h (2 Bft)
11.08.2016 12:00 13,5 C 13,5 C 70 % 1024,5 hPa 0,0 mm 6,0 km/h (2 Bft) W 0,80 h 0,280 mm 5,5 UV-I 755 W/m 8,0 C 10,0 km/h (2 Bft)
11.08.2016 13:00 14,6 C 14,6 C 64 % 1024,0 hPa 0,0 mm 8,0 km/h (2 Bft) W-NW 0,85 h 0,406 mm 6,1 UV-I 827 W/m 7,9 C 12,9 km/h (3 Bft)
11.08.2016 14:00 14,7 C 14,7 C 63 % 1023,9 hPa 0,0 mm 7,1 km/h (2 Bft) W-NW 0,43 h 0,457 mm 4,4 UV-I 534 W/m 7,6 C 11,6 km/h (2 Bft)
11.08.2016 15:00 15,2 C 15,2 C 60 % 1023,9 hPa 0,0 mm 6,5 km/h (2 Bft) W-NW 0,75 h 0,331 mm 4,5 UV-I 689 W/m 7,4 C 10,6 km/h (2 Bft)
11.08.2016 16:00 15,1 C 15,1 C 58 % 1023,7 hPa 0,0 mm 6,8 km/h (2 Bft) W 0,12 h 0,381 mm 2,1 UV-I 163 W/m 6,8 C 11,1 km/h (2 Bft)
11.08.2016 17:00 15,0 C 15,0 C 58 % 1023,5 hPa 0,0 mm 4,7 km/h (1 Bft) W-NW 0,00 h 0,127 mm 1,4 UV-I 121 W/m 6,9 C 7,7 km/h (2 Bft)
11.08.2016 18:00 15,0 C 15,1 C 56 % 1023,4 hPa 0,0 mm 5,5 km/h (1 Bft) W-SW 0,00 h 0,101 mm 0,9 UV-I 79 W/m 6,2 C 9,1 km/h (2 Bft)
11.08.2016 19:00 13,4 C 13,4 C 63 % 1023,5 hPa 0,0 mm 2,4 km/h (1 Bft) S 0,00 h 0,076 mm 0,5 UV-I 49 W/m 6,5 C 4,3 km/h (1 Bft)
11.08.2016 20:00 10,7 C 10,7 C 77 % 1023,6 hPa 0,0 mm 2,8 km/h (1 Bft) S 0,00 h 0,051 mm 0,0 UV-I 12 W/m 6,9 C 4,6 km/h (1 Bft)
11.08.2016 21:00 9,7 C 9,7 C 79 % 1024,2 hPa 0,0 mm 3,1 km/h (1 Bft) S 0,00 h 0,026 mm 0,0 UV-I 0 W/m 6,2 C 5,1 km/h (1 Bft)
11.08.2016 22:00 8,7 C 8,7 C 84 % 1024,5 hPa 0,0 mm 1,7 km/h (1 Bft) S 0,00 h 0,025 mm 0,0 UV-I 0 W/m 6,1 C 3,0 km/h (1 Bft)
11.08.2016 23:00 8,1 C 8,1 C 87 % 1024,6 hPa 0,0 mm 1,5 km/h (1 Bft) SO 0,00 h 0,000 mm 0,0 UV-I 0 W/m 6,0 C 2,5 km/h (1 Bft)
12.08.2016 00:00 8,0 C 8,0 C 88 % 1024,6 hPa 0,0 mm 0,8 km/h (0 Bft) O-SO 0,00 h 0,000 mm 0,0 UV-I 0 W/m 6,1 C 1,7 km/h (1 Bft)
12.08.2016 01:00 8,9 C 8,9 C 85 % 1024,4 hPa 0,0 mm 0,9 km/h (0 Bft) O-SO 0,00 h 0,000 mm 0,0 UV-I 0 W/m 6,5 C 2,0 km/h (1 Bft)
12.08.2016 02:00 9,4 C 9,4 C 85 % 1024,5 hPa 0,0 mm 2,5 km/h (1 Bft) S 0,00 h 0,000 mm 0,0 UV-I 0 W/m 6,9 C 4,3 km/h (1 Bft)
12.08.2016 03:00 9,7 C 9,8 C 86 % 1024,6 hPa 0,4 mm 3,0 km/h (1 Bft) S 0,00 h 0,025 mm 0,0 UV-I 0 W/m 7,6 C 5,1 km/h (1 Bft)
12.08.2016 04:00 9,2 C 9,2 C 92 % 1024,6 hPa 0,6 mm 1,3 km/h (1 Bft) S 0,00 h 0,000 mm 0,0 UV-I 0 W/m 8,0 C 2,6 km/h (1 Bft)
12.08.2016 05:00 9,2 C 9,2 C 92 % 1024,8 hPa 0,4 mm 1,7 km/h (1 Bft) S 0,00 h 0,000 mm 0,0 UV-I 0 W/m 8,0 C 3,4 km/h (1 Bft)
12.08.2016 06:00 9,5 C 9,5 C 90 % 1025,1 hPa 0,6 mm 3,0 km/h (1 Bft) S 0,00 h 0,000 mm 0,0 UV-I 11 W/m 7,9 C 5,8 km/h (2 Bft)
12.08.2016 07:00 10,0 C 10,0 C 88 % 1025,2 hPa 0,2 mm 2,9 km/h (1 Bft) S-SW 0,00 h 0,000 mm 0,0 UV-I 39 W/m 8,1 C 5,4 km/h (1 Bft)
12.08.2016 08:00 10,2 C 10,3 C 91 % 1025,4 hPa 0,2 mm 1,4 km/h (1 Bft) W-SW 0,00 h 0,026 mm 0,5 UV-I 63 W/m 8,9 C 2,8 km/h (1 Bft)
12.08.2016 09:00 11,3 C 11,3 C 90 % 1025,7 hPa 0,0 mm 2,3 km/h (1 Bft) W 0,00 h 0,025 mm 0,9 UV-I 120 W/m 9,7 C 3,8 km/h (1 Bft)
12.08.2016 10:00 12,1 C 12,1 C 87 % 1025,9 hPa 0,0 mm 3,4 km/h (1 Bft) W 0,00 h 0,051 mm 1,0 UV-I 115 W/m 10,0 C 5,9 km/h (2 Bft)
12.08.2016 11:00 12,6 C 12,6 C 86 % 1026,2 hPa 0,0 mm 4,6 km/h (1 Bft) W 0,00 h 0,051 mm 1,6 UV-I 177 W/m 10,3 C 7,8 km/h (2 Bft)
12.08.2016 12:00 13,3 C 13,3 C 84 % 1026,2 hPa 0,0 mm 7,4 km/h (2 Bft) W 0,00 h 0,101 mm 2,2 UV-I 229 W/m 10,7 C 12,2 km/h (3 Bft)
12.08.2016 13:00 14,1 C 14,1 C 82 % 1026,4 hPa 0,0 mm 9,3 km/h (2 Bft) W 0,00 h 0,127 mm 2,6 UV-I 281 W/m 11,1 C 15,8 km/h (3 Bft)
12.08.2016 14:00 14,8 C 14,8 C 82 % 1026,4 hPa 0,0 mm 9,9 km/h (2 Bft) W 0,00 h 0,153 mm 2,9 UV-I 304 W/m 11,8 C 15,6 km/h (3 Bft)
12.08.2016 15:00 14,6 C 14,6 C 84 % 1026,7 hPa 0,0 mm 9,2 km/h (2 Bft) W-SW 0,00 h 0,178 mm 1,9 UV-I 218 W/m 11,8 C 15,4 km/h (3 Bft)
12.08.2016 16:00 14,7 C 14,7 C 85 % 1027,0 hPa 0,0 mm 7,7 km/h (2 Bft) W 0,00 h 0,127 mm 1,4 UV-I 180 W/m 12,3 C 12,3 km/h (3 Bft)
12.08.2016 17:00 14,6 C 14,6 C 87 % 1027,2 hPa 0,0 mm 7,5 km/h (2 Bft) W 0,00 h 0,101 mm 1,0 UV-I 134 W/m 12,4 C 12,6 km/h (3 Bft)
12.08.2016 18:00 14,9 C 14,9 C 85 % 1027,2 hPa 0,0 mm 4,8 km/h (1 Bft) W 0,00 h 0,076 mm 0,6 UV-I 74 W/m 12,4 C 8,4 km/h (2 Bft)
12.08.2016 19:00 14,6 C 14,6 C 86 % 1027,4 hPa 0,0 mm 5,1 km/h (1 Bft) W-SW 0,00 h 0,051 mm 0,0 UV-I 30 W/m 12,3 C 8,6 km/h (2 Bft)
12.08.2016 20:00 13,8 C 13,8 C 90 % 1027,5 hPa 0,0 mm 2,7 km/h (1 Bft) SW 0,00 h 0,026 mm 0,0 UV-I 6 W/m 12,1 C 4,6 km/h (1 Bft)
12.08.2016 21:00 13,4 C 13,4 C 91 % 1027,5 hPa 0,0 mm 0,3 km/h (0 Bft) W 0,00 h 0,000 mm 0,0 UV-I 0 W/m 12,0 C 1,0 km/h (0 Bft)
12.08.2016 22:00 13,3 C 13,3 C 92 % 1027,7 hPa 0,0 mm 0,3 km/h (0 Bft) S 0,00 h 0,000 mm 0,0 UV-I 0 W/m 12,1 C 1,1 km/h (1 Bft)
12.08.2016 23:00 13,5 C 13,5 C 90 % 1027,5 hPa 0,0 mm 0,4 km/h (0 Bft) SO 0,00 h 0,000 mm 0,0 UV-I 0 W/m 11,9 C 1,3 km/h (1 Bft)
13.08.2016 00:00 12,5 C 12,5 C 92 % 1027,2 hPa 0,0 mm 0,7 km/h (0 Bft) O-SO 0,00 h 0,000 mm 0,0 UV-I 0 W/m 11,2 C 1,9 km/h (1 Bft)
13.08.2016 01:00 11,8 C 11,8 C 94 % 1026,9 hPa 0,0 mm 0,3 km/h (0 Bft) W 0,00 h 0,000 mm 0,0 UV-I 0 W/m 10,8 C 1,1 km/h (0 Bft)
13.08.2016 02:00 11,1 C 11,2 C 95 % 1026,6 hPa 0,0 mm 0,3 km/h (0 Bft) W 0,00 h 0,000 mm 0,0 UV-I 0 W/m 10,4 C 1,0 km/h (0 Bft)
13.08.2016 03:00 10,7 C 10,7 C 95 % 1026,2 hPa 0,0 mm 0,0 km/h (0 Bft) N 0,00 h 0,000 mm 0,0 UV-I 0 W/m 9,9 C 0,4 km/h (0 Bft)
13.08.2016 04:00 10,1 C 10,1 C 95 % 1025,8 hPa 0,0 mm 0,1 km/h (0 Bft) W-NW 0,00 h 0,000 mm 0,0 UV-I 0 W/m 9,4 C 0,9 km/h (0 Bft)
13.08.2016 05:00 9,7 C 9,7 C 96 % 1025,5 hPa 0,0 mm 0,3 km/h (0 Bft) W-NW 0,00 h 0,000 mm 0,0 UV-I 0 W/m 9,0 C 1,3 km/h (1 Bft)
13.08.2016 06:00 9,3 C 9,4 C 96 % 1025,4 hPa 0,0 mm 0,4 km/h (0 Bft) N-NW 0,00 h 0,000 mm 0,0 UV-I 13 W/m 8,7 C 1,5 km/h (1 Bft)
13.08.2016 07:00 11,4 C 11,4 C 94 % 1025,3 hPa 0,0 mm 0,8 km/h (0 Bft) S-SW 0,38 h 0,000 mm 0,7 UV-I 104 W/m 10,4 C 2,1 km/h (1 Bft)
13.08.2016 08:00 14,6 C 14,6 C 86 % 1025,0 hPa 0,0 mm 0,7 km/h (0 Bft) NO 1,00 h 0,051 mm 1,6 UV-I 334 W/m 12,4 C 1,8 km/h (1 Bft)
13.08.2016 09:00 17,2 C 17,3 C 80 % 1024,9 hPa 0,0 mm 0,6 km/h (0 Bft) NO 1,00 h 0,178 mm 3,1 UV-I 504 W/m 13,7 C 1,4 km/h (1 Bft)
13.08.2016 10:00 19,0 C 19,1 C 69 % 1024,8 hPa 0,0 mm 1,9 km/h (1 Bft) O 1,00 h 0,279 mm 4,5 UV-I 650 W/m 13,2 C 3,3 km/h (1 Bft)
13.08.2016 11:00 20,4 C 20,4 C 65 % 1024,6 hPa 0,0 mm 2,5 km/h (1 Bft) O 1,00 h 0,381 mm 5,8 UV-I 754 W/m 13,5 C 4,1 km/h (1 Bft)
13.08.2016 12:00 21,8 C 21,8 C 61 % 1024,1 hPa 0,0 mm 3,4 km/h (1 Bft) W-NW 1,00 h 0,457 mm 6,6 UV-I 817 W/m 13,9 C 5,7 km/h (1 Bft)
13.08.2016 13:00 22,6 C 22,6 C 58 % 1023,8 hPa 0,0 mm 4,1 km/h (1 Bft) W-NW 1,00 h 0,508 mm 6,8 UV-I 828 W/m 13,9 C 6,8 km/h (2 Bft)
13.08.2016 14:00 23,0 C 23,1 C 57 % 1023,5 hPa 0,0 mm 4,2 km/h (1 Bft) N-NW 0,83 h 0,534 mm 6,4 UV-I 800 W/m 14,2 C 7,4 km/h (2 Bft)
13.08.2016 15:00 23,5 C 23,6 C 56 % 1022,7 hPa 0,0 mm 3,7 km/h (1 Bft) NO 0,27 h 0,508 mm 4,8 UV-I 658 W/m 14,2 C 6,4 km/h (2 Bft)
13.08.2016 16:00 23,4 C 23,4 C 56 % 1022,7 hPa 0,0 mm 4,2 km/h (1 Bft) NW 0,30 h 0,457 mm 3,3 UV-I 218 W/m 14,1 C 7,1 km/h (2 Bft)
13.08.2016 17:00 23,4 C 23,4 C 58 % 1022,4 hPa 0,0 mm 4,6 km/h (1 Bft) NW 0,00 h 0,152 mm 1,5 UV-I 37 W/m 14,6 C 7,1 km/h (2 Bft)
13.08.2016 18:00 22,9 C 23,0 C 59 % 1022,3 hPa 0,0 mm 3,2 km/h (1 Bft) NW 0,00 h 0,051 mm 0,8 UV-I 39 W/m 14,6 C 5,1 km/h (1 Bft)
13.08.2016 19:00 21,6 C 21,7 C 65 % 1022,1 hPa 0,0 mm 1,0 km/h (0 Bft) W 0,08 h 0,051 mm 0,6 UV-I 49 W/m 14,8 C 2,0 km/h (1 Bft)
13.08.2016 20:00 18,3 C 18,4 C 79 % 1022,1 hPa 0,0 mm 1,4 km/h (1 Bft) W-SW 0,02 h 0,051 mm 0,0 UV-I 12 W/m 14,6 C 2,3 km/h (1 Bft)
13.08.2016 21:00 16,3 C 16,4 C 85 % 1022,4 hPa 0,0 mm 2,9 km/h (1 Bft) S 0,00 h 0,000 mm 0,0 UV-I 0 W/m 13,8 C 4,3 km/h (1 Bft)
13.08.2016 22:00 15,2 C 15,2 C 88 % 1022,5 hPa 0,0 mm 0,7 km/h (0 Bft) S 0,00 h 0,025 mm 0,0 UV-I 0 W/m 13,3 C 1,3 km/h (1 Bft)
13.08.2016 23:00 14,3 C 14,3 C 91 % 1022,5 hPa 0,0 mm 0,0 km/h (0 Bft) N 0,00 h 0,000 mm 0,0 UV-I 0 W/m 12,8 C 0,0 km/h (0 Bft)
14.08.2016 00:00 13,5 C 13,5 C 92 % 1022,5 hPa 0,0 mm 0,0 km/h (0 Bft) N 0,00 h 0,000 mm 0,0 UV-I 0 W/m 12,3 C 0,0 km/h (0 Bft)
14.08.2016 01:00 13,4 C 13,4 C 93 % 1022,4 hPa 0,0 mm 0,1 km/h (0 Bft) N 0,00 h 0,000 mm 0,0 UV-I 0 W/m 12,3 C 0,6 km/h (0 Bft)
14.08.2016 02:00 12,9 C 13,0 C 91 % 1022,2 hPa 0,0 mm 0,1 km/h (0 Bft) W 0,00 h 0,000 mm 0,0 UV-I 0 W/m 11,6 C 0,3 km/h (0 Bft)
14.08.2016 03:00 12,7 C 12,7 C 92 % 1022,0 hPa 0,0 mm 0,4 km/h (0 Bft) W 0,00 h 0,000 mm 0,0 UV-I 0 W/m 11,4 C 1,0 km/h (0 Bft)
14.08.2016 04:00 12,5 C 12,5 C 91 % 1021,7 hPa 0,0 mm 0,5 km/h (0 Bft) W-NW 0,00 h 0,000 mm 0,0 UV-I 0 W/m 11,0 C 1,3 km/h (1 Bft)
14.08.2016 05:00 12,0 C 12,0 C 93 % 1021,4 hPa 0,0 mm 0,1 km/h (0 Bft) N 0,00 h 0,000 mm 0,0 UV-I 0 W/m 10,9 C 0,7 km/h (0 Bft)
14.08.2016 06:00 12,4 C 12,4 C 92 % 1021,5 hPa 0,0 mm 0,3 km/h (0 Bft) W-SW 0,00 h 0,000 mm 0,0 UV-I 14 W/m 11,1 C 0,9 km/h (0 Bft)
14.08.2016 07:00 13,8 C 13,8 C 89 % 1021,6 hPa 0,0 mm 0,1 km/h (0 Bft) W-SW 0,35 h 0,000 mm 0,8 UV-I 98 W/m 12,0 C 0,5 km/h (0 Bft)
14.08.2016 08:00 17,1 C 17,1 C 84 % 1021,5 hPa 0,0 mm 0,0 km/h (0 Bft) N 1,00 h 0,051 mm 1,6 UV-I 324 W/m 14,3 C 0,0 km/h (0 Bft)
14.08.2016 09:00 19,5 C 19,5 C 78 % 1021,6 hPa 0,0 mm 0,3 km/h (0 Bft) N-NO 1,00 h 0,178 mm 2,8 UV-I 436 W/m 15,6 C 0,6 km/h (0 Bft)
14.08.2016 10:00 21,3 C 21,3 C 69 % 1021,5 hPa 0,0 mm 1,9 km/h (1 Bft) N-NW 1,00 h 0,254 mm 4,3 UV-I 604 W/m 15,5 C 3,5 km/h (1 Bft)
14.08.2016 11:00 23,0 C 23,0 C 62 % 1021,1 hPa 0,0 mm 3,8 km/h (1 Bft) NW 1,00 h 0,355 mm 5,6 UV-I 742 W/m 15,4 C 6,4 km/h (2 Bft)
14.08.2016 12:00 24,0 C 24,1 C 60 % 1020,6 hPa 0,0 mm 5,9 km/h (2 Bft) W-NW 1,00 h 0,457 mm 6,4 UV-I 801 W/m 15,7 C 9,7 km/h (2 Bft)
14.08.2016 13:00 24,7 C 24,7 C 59 % 1020,3 hPa 0,0 mm 6,5 km/h (2 Bft) NW 1,00 h 0,534 mm 6,7 UV-I 819 W/m 16,2 C 10,9 km/h (2 Bft)
14.08.2016 14:00 25,2 C 25,2 C 57 % 1020,0 hPa 0,0 mm 7,3 km/h (2 Bft) W-NW 0,97 h 0,559 mm 6,2 UV-I 783 W/m 16,1 C 12,0 km/h (2 Bft)
14.08.2016 15:00 25,2 C 25,2 C 56 % 1019,7 hPa 0,0 mm 6,3 km/h (2 Bft) W-NW 0,93 h 0,533 mm 5,1 UV-I 706 W/m 15,8 C 10,2 km/h (2 Bft)
14.08.2016 16:00 24,9 C 24,9 C 57 % 1019,5 hPa 0,0 mm 4,5 km/h (1 Bft) W-NW 0,18 h 0,483 mm 2,4 UV-I 209 W/m 15,8 C 7,0 km/h (2 Bft)
14.08.2016 17:00 24,8 C 24,8 C 58 % 1019,3 hPa 0,0 mm 4,4 km/h (1 Bft) W-NW 0,00 h 0,152 mm 1,5 UV-I 85 W/m 15,8 C 6,9 km/h (2 Bft)
14.08.2016 18:00 23,6 C 23,7 C 64 % 1019,1 hPa 0,0 mm 1,8 km/h (1 Bft) W 0,00 h 0,102 mm 0,9 UV-I 67 W/m 16,3 C 3,1 km/h (1 Bft)
14.08.2016 19:00 22,4 C 22,5 C 72 % 1019,1 hPa 0,0 mm 1,4 km/h (1 Bft) O 0,05 h 0,050 mm 0,6 UV-I 53 W/m 17,1 C 2,3 km/h (1 Bft)
14.08.2016 20:00 20,2 C 20,3 C 80 % 1019,3 hPa 0,0 mm 0,9 km/h (0 Bft) O-SO 0,02 h 0,051 mm 0,0 UV-I 8 W/m 16,6 C 1,6 km/h (1 Bft)
14.08.2016 21:00 17,7 C 17,7 C 87 % 1019,6 hPa 0,0 mm 1,7 km/h (1 Bft) S-SO 0,00 h 0,000 mm 0,0 UV-I 0 W/m 15,4 C 2,7 km/h (1 Bft)
14.08.2016 22:00 16,5 C 16,6 C 89 % 1020,0 hPa 0,0 mm 0,0 km/h (0 Bft) N 0,00 h 0,026 mm 0,0 UV-I 0 W/m 14,7 C 0,0 km/h (0 Bft)
14.08.2016 23:00 16,4 C 16,4 C 91 % 1020,0 hPa 0,0 mm 0,0 km/h (0 Bft) N 0,00 h 0,000 mm 0,0 UV-I 0 W/m 14,8 C 0,0 km/h (0 Bft)
Min-Datum _ 11.08.16 11.08.16 08.08.16 09.08.16 - 14.08.16 - - - - - 11.08.16 14.08.16
_ Min-Zeit 05:01 03:43 18:27 05:00 - 23:00 - - - - - 18:31 23:00
Minimum _ 6,6 C 6,6 C 46 % 1016,9 hPa - 0,0 km/h (0 Bft) - - - - - 4,9 C 0,0 km/h (0 Bft)
Max-Datum _ 14.08.16 14.08.16 13.08.16 12.08.16 09.08.16 08.08.16 - 13.08.16 14.08.16 08.08.16 11.08.16 08.08.16 12.08.16
_ Max-Zeit 16:02 16:02 07:00 22:32 05:35 11:20 - 15:48 14:00 13:02 13:54 14:04 15:13
Maximum _ 25,6 C 25,6 C 96 % 1027,8 hPa 8,6 mm 17,8 km/h
W-NW (3 Bft)
- 0,08 h 0,559 mm 7,0 UV-I 1081 W/m 18,2 C 27,4 km/h
W (4 Bft)
Durchschnitt _ 14,1 C 14,2 C 83 % 1021,9 hPa #46,8 mm 2,5 km/h (1 Bft) W #29:29 h #16,079 mm 2,6 UV-I 154 W/m 11,1 C 4,3 km/h (1 Bft)